Abbott, NM

4:53 PM MST on December 26, 2014 (GMT -0700)
RAWS MILLS CANYON NM US | Change Station
CLOSE
Current Station
Personal Weather Station
Location: Mills, NM
Elevation: 5838 ft
Nearby Weather Stations
Active Advisory: Winter Storm Warning Active Notice: Public Information Statement

Elev 5838 ft 36.06 °N, 104.32 °W | Updated 48 minutes ago

Overcast
Overcast
22 °F
Feels Like 13 °F
N
8
Wind Variable Wind from ENE
Gusts 10.0 mph

Today
High -- | Low -- °F
--% Chance of Precip.
Yesterday
High -- | Low -- °F
Precip. -- in
7:07 AM 4:48 PM
Waxing Crescent, 30% visible
Pressure 29.86 in
Visibility 6.0 miles
Clouds Few 2500 ft
Mostly Cloudy 3200 ft
Overcast 6000 ft
Windchill 13 °F
Dew Point 19 °F
Humidity 89%
Rainfall 0.00 in
Snow Depth Not available.
UV 0 out of 12
Pollen .10 out of 12
Air Quality Not available.
Flu Activity Not available.
SPECI KRTN 262324Z AUTO 02003KT 6SM -SN FEW025 BKN032 OVC060 M08/M11 A2986 RMK AO2 SNE02B08 P0000 T10781106

More Conditions Fewer Conditions

Pressure 29.86 in
Visibility 6.0 miles
Clouds Few 2500 ft
Mostly Cloudy 3200 ft
Overcast 6000 ft
Windchill 13 °F
Dew Point 19 °F
Humidity 89%
Rainfall 0.00 in
Snow Depth Not available.
UV 0 out of 12
Pollen .10 out of 12
Air Quality Not available.
Flu Activity Not available.
SPECI KRTN 262324Z AUTO 02003KT 6SM -SN FEW025 BKN032 OVC060 M08/M11 A2986 RMK AO2 SNE02B08 P0000 T10781106

More Conditions Fewer Conditions

Nowcast | as of 3:21 PM MST on December 26, 2014

Areas of light snow and patchy fog will continue to impact portions of northeast and east central New Mexico into the early evening hours. Visibilities will be occasionally reduced to 3 miles or less in snow and fog. Some locations that may be most affected before 6 PM include Raton to Raton Pass...Angel Fire and Clayton. Additional snow accumulations will range from a dusting to very localized 2 inch amounts. Roads may be snowpacked and icy. For the latest New Mexico Road conditions call 5 1 1 or visit nmroads.Com.

×

10-Day Weather Forecast

Almanac

Astronomy

Dec. 26, 2014 Rise Set
Actual Time
Civil Twilight
Nautical Twilight
Astronomical Twilight
Moon
Length of Visible Light
Length of Day
Tomorrow will be .
, % of the Moon is Illuminated

Today's Extremes

State Highs State Lows

Community

WunderPhotos

Upload Photos

1,780,769 photos uploaded!

WunderBlogs® & News

Nearby

Air Quality

  Air Quality AQ Index Pollutant
Not available.

Snow Depth

Station Depth Elevation

Earthquake Activity

City Distance Mag. Time & Date
Minimum magnitude displayed is 2.5.

Coastal Water Temperatures

Place Temperature

Nearby Weather Stations